createdAt,value
2022-11-16T00:01:14.548Z,99975.31
2022-11-16T00:03:42.484Z,99971.41
2022-11-16T00:06:10.518Z,99973.78
2022-11-16T00:08:41.234Z,99965.16
2022-11-16T00:11:19.232Z,99964.38
2022-11-16T00:13:46.295Z,99965.59
2022-11-16T00:16:17.059Z,99968.75
2022-11-16T00:18:44.436Z,99959.72
2022-11-16T00:21:11.630Z,99951.09
2022-11-16T00:23:39.011Z,99943.59
2022-11-16T00:26:08.053Z,99946.78
2022-11-16T00:28:36.054Z,99951.50
2022-11-16T00:31:05.454Z,99947.59
2022-11-16T00:33:33.171Z,99948.38
2022-11-16T00:36:08.123Z,99943.63
2022-11-16T00:38:35.399Z,99941.69
2022-11-16T00:41:02.515Z,99939.72
2022-11-16T00:43:30.250Z,99936.16
2022-11-16T00:45:57.244Z,99933.41
2022-11-16T00:48:24.167Z,99933.41
2022-11-16T00:50:51.273Z,99922.81
2022-11-16T00:53:20.189Z,99926.72
2022-11-16T00:55:48.227Z,99927.13
2022-11-16T00:58:17.428Z,99920.81
2022-11-16T01:00:48.579Z,99922.00
2022-11-16T01:03:15.322Z,99920.47
2022-11-16T01:05:42.206Z,99914.94
2022-11-16T01:08:10.549Z,99914.94
2022-11-16T01:10:40.391Z,99909.03
2022-11-16T01:13:11.460Z,99909.84
2022-11-16T01:15:38.235Z,99901.56
2022-11-16T01:18:05.254Z,99905.53
2022-11-16T01:20:32.706Z,99901.16
2022-11-16T01:22:59.605Z,99896.44
2022-11-16T01:25:26.433Z,99898.03
2022-11-16T01:27:53.429Z,99896.06
2022-11-16T01:30:31.624Z,99890.53
2022-11-16T01:33:07.677Z,99891.34
2022-11-16T01:35:34.699Z,99889.38
2022-11-16T01:38:01.552Z,99890.19
2022-11-16T01:40:28.940Z,99879.94
2022-11-16T01:42:55.800Z,99879.16
2022-11-16T01:45:48.025Z,99867.72
2022-11-16T01:48:20.531Z,99869.31
2022-11-16T01:50:49.272Z,99876.44
2022-11-16T01:53:22.195Z,99865.41
2022-11-16T01:55:53.042Z,99868.94
2022-11-16T01:58:35.205Z,99863.00
2022-11-16T02:01:23.571Z,99861.06
2022-11-16T02:03:55.071Z,99850.03
2022-11-16T02:06:25.025Z,99849.63
2022-11-16T02:09:34.513Z,99851.22
2022-11-16T02:12:32.592Z,99841.00
2022-11-16T02:15:42.151Z,99837.06
2022-11-16T02:18:21.156Z,99830.78
2022-11-16T02:20:58.333Z,99833.53
2022-11-16T02:23:46.077Z,99842.19
2022-11-16T02:26:31.449Z,99830.38
2022-11-16T02:29:20.822Z,99827.63
2022-11-16T02:31:51.693Z,99819.78
2022-11-16T02:34:21.187Z,99826.84
2022-11-16T02:36:51.667Z,99826.84
2022-11-16T02:39:22.466Z,99822.94
2022-11-16T02:41:51.947Z,99811.91
2022-11-16T02:44:24.572Z,99811.91
2022-11-16T02:46:57.975Z,99807.19
2022-11-16T02:49:27.245Z,99815.44
2022-11-16T02:51:55.187Z,99807.97
2022-11-16T02:54:24.614Z,99807.97
2022-11-16T02:56:56.786Z,99808.75
2022-11-16T02:59:31.755Z,99810.31
2022-11-16T03:02:25.037Z,99810.72
2022-11-16T03:04:58.953Z,99810.72
2022-11-16T03:07:35.234Z,99808.75
2022-11-16T03:10:02.637Z,99804.41
2022-11-16T03:12:32.482Z,99800.88
2022-11-16T03:15:02.368Z,99794.97
2022-11-16T03:17:33.335Z,99808.75
2022-11-16T03:20:17.840Z,99805.59
2022-11-16T03:22:51.369Z,99791.81
2022-11-16T03:25:20.564Z,99798.47
2022-11-16T03:28:07.580Z,99786.28
2022-11-16T03:30:46.430Z,99784.69
2022-11-16T03:33:16.095Z,99784.69
2022-11-16T03:35:55.285Z,99782.75
2022-11-16T03:38:25.044Z,99773.69
2022-11-16T03:40:56.741Z,99781.19
2022-11-16T03:43:26.451Z,99776.44
2022-11-16T03:45:54.750Z,99776.84
2022-11-16T03:48:21.649Z,99781.56
2022-11-16T03:50:49.871Z,99772.13
2022-11-16T03:53:18.007Z,99775.66
2022-11-16T03:55:49.608Z,99769.75
2022-11-16T03:58:18.735Z,99763.44
2022-11-16T04:00:46.155Z,99772.13
2022-11-16T04:03:13.329Z,99762.28
2022-11-16T04:05:59.157Z,99759.13
2022-11-16T04:08:44.766Z,99762.69
2022-11-16T04:11:33.604Z,99758.75
2022-11-16T04:14:19.483Z,99757.59
2022-11-16T04:17:05.065Z,99763.88
2022-11-16T04:19:54.046Z,99760.34
2022-11-16T04:22:49.766Z,99757.59
2022-11-16T04:25:23.277Z,99762.31
2022-11-16T04:28:11.485Z,99761.53
2022-11-16T04:30:57.150Z,99755.22
2022-11-16T04:33:43.450Z,99759.16
2022-11-16T04:36:29.700Z,99753.63
2022-11-16T04:38:56.677Z,99750.88
2022-11-16T04:41:43.080Z,99751.28
2022-11-16T04:44:10.512Z,99752.84
2022-11-16T04:47:10.657Z,99748.13
2022-11-16T04:49:39.185Z,99755.22
2022-11-16T04:52:07.157Z,99752.06
2022-11-16T04:54:34.162Z,99757.97
2022-11-16T04:57:02.409Z,99753.63
2022-11-16T04:59:29.559Z,99748.13
2022-11-16T05:02:08.904Z,99748.91
2022-11-16T05:04:44.336Z,99748.13
2022-11-16T05:07:13.761Z,99744.19
2022-11-16T05:09:45.043Z,99747.31
2022-11-16T05:12:15.575Z,99744.19
2022-11-16T05:14:44.503Z,99743.41
2022-11-16T05:17:13.015Z,99741.84
2022-11-16T05:19:58.559Z,99743.41
2022-11-16T05:22:27.492Z,99752.06
2022-11-16T05:24:55.791Z,99747.34
2022-11-16T05:27:24.758Z,99754.06
2022-11-16T05:29:52.079Z,99752.06
2022-11-16T05:32:23.226Z,99753.66
2022-11-16T05:34:50.895Z,99754.44
2022-11-16T05:37:19.199Z,99752.06
2022-11-16T05:39:46.489Z,99758.38
2022-11-16T05:42:14.164Z,99758.38
2022-11-16T05:44:41.191Z,99771.38
2022-11-16T05:47:10.110Z,99771.38
2022-11-16T05:49:38.304Z,99766.28
2022-11-16T05:52:05.292Z,99780.09
2022-11-16T05:54:32.311Z,99784.00
2022-11-16T05:56:59.216Z,99789.53
2022-11-16T05:59:26.300Z,99797.00
2022-11-16T06:01:55.942Z,99797.78
2022-11-16T06:04:24.850Z,99805.25
2022-11-16T06:06:53.764Z,99804.47
2022-11-16T06:09:20.882Z,99804.06
2022-11-16T06:11:49.356Z,99808.00
2022-11-16T06:14:16.502Z,99812.72
2022-11-16T06:16:43.966Z,99816.25
2022-11-16T06:19:11.713Z,99822.94
2022-11-16T06:21:38.633Z,99825.28
2022-11-16T06:24:11.883Z,99824.09
2022-11-16T06:26:38.801Z,99818.19
2022-11-16T06:29:05.852Z,99831.56
2022-11-16T06:31:34.537Z,99827.59
2022-11-16T06:34:04.040Z,99827.97
2022-11-16T06:36:30.990Z,99817.72
2022-11-16T06:39:01.693Z,99816.56
2022-11-16T06:41:32.343Z,99819.69
2022-11-16T06:43:59.234Z,99814.56
2022-11-16T06:46:32.281Z,99805.50
2022-11-16T06:48:59.141Z,99821.22
2022-11-16T06:51:26.137Z,99826.38
2022-11-16T06:53:53.020Z,99836.97
2022-11-16T06:56:21.300Z,99846.78
2022-11-16T06:58:56.425Z,99846.75
2022-11-16T07:01:25.173Z,99854.22
2022-11-16T07:03:59.112Z,99861.28
2022-11-16T07:06:26.447Z,99856.97
2022-11-16T07:08:53.376Z,99868.00
2022-11-16T07:11:24.944Z,99868.00
2022-11-16T07:13:52.618Z,99865.25
2022-11-16T07:16:21.144Z,99858.13
2022-11-16T07:18:59.425Z,99858.94
2022-11-16T07:21:29.397Z,99873.88
2022-11-16T07:23:57.445Z,99873.88
2022-11-16T07:26:24.364Z,99876.22
2022-11-16T07:28:59.023Z,99871.50
2022-11-16T07:31:27.268Z,99877.03
2022-11-16T07:34:12.662Z,99886.03
2022-11-16T07:36:50.804Z,99894.31
2022-11-16T07:39:17.778Z,99894.31
2022-11-16T07:41:45.279Z,99897.06
2022-11-16T07:44:25.097Z,99894.69
2022-11-16T07:47:04.971Z,99907.28
2022-11-16T07:49:33.819Z,99909.66
2022-11-16T07:52:09.774Z,99913.56
2022-11-16T07:54:46.615Z,99909.22
2022-11-16T07:57:14.636Z,99915.53
2022-11-16T07:59:42.284Z,99912.75
2022-11-16T08:02:12.596Z,99912.38
2022-11-16T08:04:41.254Z,99917.88
2022-11-16T08:07:09.036Z,99915.47
2022-11-16T08:09:43.182Z,99920.19
2022-11-16T08:12:13.414Z,99918.22
2022-11-16T08:14:40.478Z,99915.13
2022-11-16T08:17:08.632Z,99904.91
2022-11-16T08:19:39.457Z,99913.94
2022-11-16T08:22:07.940Z,99915.91
2022-11-16T08:24:35.193Z,99916.69
2022-11-16T08:27:02.334Z,99915.91
2022-11-16T08:29:29.565Z,99915.53
2022-11-16T08:31:57.986Z,99923.00
2022-11-16T08:34:24.919Z,99917.53
2022-11-16T08:36:57.586Z,99921.88
2022-11-16T08:39:31.191Z,99916.75
2022-11-16T08:41:59.106Z,99927.03
2022-11-16T08:44:25.913Z,99934.88
2022-11-16T08:46:55.184Z,99929.41
2022-11-16T08:49:32.991Z,99931.84
2022-11-16T08:52:00.257Z,99942.53
2022-11-16T08:54:29.191Z,99948.84
2022-11-16T08:56:56.820Z,99952.09
2022-11-16T08:59:24.036Z,99960.78
2022-11-16T09:01:54.418Z,99950.59
2022-11-16T09:04:21.893Z,99963.25
2022-11-16T09:06:48.936Z,99966.44
2022-11-16T09:09:15.759Z,99968.06
2022-11-16T09:11:43.205Z,99959.03
2022-11-16T09:14:10.161Z,99963.75
2022-11-16T09:16:37.092Z,99962.59
2022-11-16T09:19:04.043Z,99961.84
2022-11-16T09:21:31.075Z,99970.13
2022-11-16T09:23:58.326Z,99971.72
2022-11-16T09:26:26.330Z,99974.13
2022-11-16T09:28:59.373Z,99976.91
2022-11-16T09:31:31.257Z,99983.97
2022-11-16T09:33:58.914Z,99992.22
2022-11-16T09:36:28.077Z,99993.41
2022-11-16T09:39:23.829Z,99997.34
2022-11-16T09:41:44.754Z,99997.44
2022-11-16T09:44:17.749Z,99994.81
2022-11-16T09:46:54.192Z,99995.34
2022-11-16T09:49:26.021Z,99997.06
2022-11-16T09:51:57.959Z,99988.44
2022-11-16T09:54:29.859Z,100012.13
2022-11-16T09:57:05.566Z,100003.41
2022-11-16T09:59:46.691Z,100009.72
2022-11-16T10:02:25.203Z,100014.03
2022-11-16T10:05:00.634Z,100015.25
2022-11-16T10:07:42.274Z,100011.34
2022-11-16T10:10:35.191Z,100018.84
2022-11-16T10:13:25.512Z,100015.28
2022-11-16T10:16:01.279Z,100010.13
2022-11-16T10:18:46.988Z,100012.88
2022-11-16T10:21:33.150Z,100008.09
2022-11-16T10:24:22.369Z,100012.06
2022-11-16T10:27:22.148Z,100018.78
2022-11-16T10:30:10.567Z,100020.38
2022-11-16T10:32:46.151Z,100018.00
2022-11-16T10:35:13.062Z,100021.56
2022-11-16T10:37:46.577Z,100027.84
2022-11-16T10:40:21.518Z,100027.50
2022-11-16T10:43:20.740Z,100031.03
2022-11-16T10:45:58.121Z,100024.31
2022-11-16T10:48:37.456Z,100027.47
2022-11-16T10:51:05.991Z,100023.94
2022-11-16T10:53:35.757Z,100014.84
2022-11-16T10:56:23.551Z,100026.97
2022-11-16T10:58:50.654Z,100021.38
2022-11-16T11:01:51.037Z,100028.44
2022-11-16T11:04:20.608Z,100018.53
2022-11-16T11:06:51.573Z,100016.53
2022-11-16T11:09:27.225Z,100011.44
2022-11-16T11:12:33.758Z,100018.97
2022-11-16T11:15:13.403Z,100018.97
2022-11-16T11:17:47.104Z,100018.19
2022-11-16T11:20:16.959Z,100020.53
2022-11-16T11:22:55.950Z,100025.63
2022-11-16T11:25:26.582Z,100026.44
2022-11-16T11:28:21.034Z,100023.31
2022-11-16T11:31:07.446Z,100027.28
2022-11-16T11:34:21.013Z,100033.28
2022-11-16T11:36:55.560Z,100027.00
2022-11-16T11:39:22.343Z,100033.75
2022-11-16T11:42:16.902Z,100022.75
2022-11-16T11:44:49.829Z,100025.09
2022-11-16T11:48:00.578Z,100030.63
2022-11-16T11:50:54.305Z,100021.59
2022-11-16T11:53:47.303Z,100018.44
2022-11-16T11:56:15.702Z,100010.97
2022-11-16T11:58:43.308Z,100017.31
2022-11-16T12:01:49.319Z,100016.91
2022-11-16T12:04:45.943Z,100012.97
2022-11-16T12:07:34.570Z,100026.38
2022-11-16T12:10:21.416Z,100020.00
2022-11-16T12:13:06.767Z,100022.31
2022-11-16T12:16:03.295Z,100016.72
2022-11-16T12:18:44.476Z,100021.72
2022-11-16T12:21:22.437Z,100016.59
2022-11-16T12:24:17.732Z,100013.78
2022-11-16T12:27:03.020Z,100014.91
2022-11-16T12:29:45.331Z,100012.91
2022-11-16T12:32:44.097Z,100007.00
2022-11-16T12:35:34.018Z,100017.31
2022-11-16T12:38:12.744Z,100012.59
2022-11-16T12:40:45.532Z,100013.44
2022-11-16T12:43:15.247Z,100009.47
2022-11-16T12:46:21.192Z,100008.31
2022-11-16T12:48:51.062Z,99999.66
2022-11-16T12:51:53.200Z,100004.31
2022-11-16T12:54:57.909Z,99997.16
2022-11-16T12:57:53.231Z,100011.31
2022-11-16T13:00:20.548Z,100014.84
2022-11-16T13:03:20.399Z,100009.69
2022-11-16T13:06:09.656Z,100003.72
2022-11-16T13:08:53.880Z,100002.91
2022-11-16T13:11:27.382Z,100004.88
2022-11-16T13:14:05.665Z,100004.09
2022-11-16T13:16:32.635Z,100001.69
2022-11-16T13:19:01.208Z,99991.34
2022-11-16T13:21:57.728Z,99997.28
2022-11-16T13:24:41.837Z,99993.31
2022-11-16T13:27:34.411Z,99997.56
2022-11-16T13:30:15.518Z,100002.25
2022-11-16T13:32:55.486Z,99993.19
2022-11-16T13:35:23.991Z,99999.47
2022-11-16T13:37:52.133Z,100003.41
2022-11-16T13:40:33.315Z,99999.81
2022-11-16T13:43:19.126Z,99995.81
2022-11-16T13:45:49.057Z,99990.28
2022-11-16T13:48:24.820Z,99991.84
2022-11-16T13:50:57.612Z,99995.75
2022-11-16T13:56:28.682Z,99991.47
2022-11-16T13:58:58.362Z,99982.81
2022-11-16T14:01:26.815Z,99986.69
2022-11-16T14:04:32.562Z,99979.56
2022-11-16T14:07:00.503Z,99977.56
2022-11-16T14:09:45.292Z,99979.91
2022-11-16T14:12:49.611Z,99983.41
2022-11-16T14:15:18.141Z,99981.81
2022-11-16T14:18:01.199Z,99980.59
2022-11-16T14:20:50.422Z,99967.59
2022-11-16T14:23:28.992Z,99967.56
2022-11-16T14:26:09.608Z,99969.09
2022-11-16T14:28:54.640Z,99970.63
2022-11-16T14:31:25.825Z,99969.78
2022-11-16T14:33:55.414Z,99966.63
2022-11-16T14:36:43.459Z,99964.56
2022-11-16T14:39:26.610Z,99959.44
2022-11-16T14:41:55.071Z,99960.19
2022-11-16T14:44:26.598Z,99966.44
2022-11-16T14:46:53.679Z,99957.72
2022-11-16T14:49:21.851Z,99958.91
2022-11-16T14:51:59.245Z,99960.06
2022-11-16T14:54:47.075Z,99955.25
2022-11-16T14:57:19.881Z,99958.31
2022-11-16T14:59:46.738Z,99953.09
2022-11-16T15:02:23.591Z,99951.03
2022-11-16T15:04:52.885Z,99952.19
2022-11-16T15:07:23.541Z,99959.19
2022-11-16T15:09:56.592Z,99951.28
2022-11-16T15:12:41.689Z,99950.41
2022-11-16T15:15:11.578Z,99955.50
2022-11-16T15:18:09.006Z,99957.41
2022-11-16T15:20:38.247Z,99959.69
2022-11-16T15:23:13.261Z,99960.00
2022-11-16T15:25:59.694Z,99954.09
2022-11-16T15:28:28.969Z,99943.88
2022-11-16T15:31:04.834Z,99940.28
2022-11-16T15:33:41.304Z,99923.72
2022-11-16T15:36:53.909Z,99923.59
2022-11-16T15:39:23.331Z,99925.09
2022-11-16T15:41:51.724Z,99935.22
2022-11-16T15:44:21.247Z,99935.97
2022-11-16T15:46:51.814Z,99938.31
2022-11-16T15:49:27.673Z,99930.06
2022-11-16T15:51:54.829Z,99935.16
2022-11-16T15:54:26.945Z,99924.16
2022-11-16T15:57:08.180Z,99924.09
2022-11-16T15:59:36.659Z,99927.16
2022-11-16T16:02:03.848Z,99934.13
2022-11-16T16:04:31.377Z,99940.31
2022-11-16T16:06:59.924Z,99932.38
2022-11-16T16:09:28.102Z,99932.75
2022-11-16T16:12:15.762Z,99922.91
2022-11-16T16:14:43.180Z,99926.03
2022-11-16T16:17:12.690Z,99920.47
2022-11-16T16:19:45.427Z,99925.91
2022-11-16T16:22:26.524Z,99915.66
2022-11-16T16:24:54.180Z,99910.47
2022-11-16T16:27:24.151Z,99907.75
2022-11-16T16:29:53.112Z,99908.47
2022-11-16T16:32:28.969Z,99912.31
2022-11-16T16:34:57.957Z,99902.06
2022-11-16T16:37:32.653Z,99909.09
2022-11-16T16:40:00.377Z,99909.00
2022-11-16T16:42:27.326Z,99911.00
2022-11-16T16:44:55.256Z,99906.66
2022-11-16T16:47:22.134Z,99890.59
2022-11-16T16:49:49.555Z,99895.72
2022-11-16T16:52:16.492Z,99898.53
2022-11-16T16:54:43.628Z,99895.78
2022-11-16T16:57:18.344Z,99893.47
2022-11-16T16:59:45.836Z,99893.47
2022-11-16T17:02:13.191Z,99891.88
2022-11-16T17:04:40.587Z,99893.78
2022-11-16T17:07:07.477Z,99883.16
2022-11-16T17:09:34.301Z,99880.78
2022-11-16T17:12:01.294Z,99881.94
2022-11-16T17:14:28.066Z,99887.44
2022-11-16T17:16:54.857Z,99884.69
2022-11-16T17:19:22.116Z,99883.09
2022-11-16T17:21:48.957Z,99886.84
2022-11-16T17:24:15.790Z,99896.22
2022-11-16T17:26:43.246Z,99899.28
2022-11-16T17:29:10.091Z,99901.63
2022-11-16T17:31:37.031Z,99889.03
2022-11-16T17:34:04.043Z,99880.81
2022-11-16T17:36:31.092Z,99885.44
2022-11-16T17:38:58.385Z,99888.56
2022-11-16T17:41:26.186Z,99877.66
2022-11-16T17:43:54.558Z,99874.91
2022-11-16T17:46:23.935Z,99867.81
2022-11-16T17:48:51.838Z,99879.53
2022-11-16T17:51:23.555Z,99875.19
2022-11-16T17:53:50.639Z,99870.06
2022-11-16T17:56:21.006Z,99875.97
2022-11-16T17:58:50.217Z,99868.53
2022-11-16T18:01:17.216Z,99854.41
2022-11-16T18:03:45.103Z,99848.13
2022-11-16T18:06:14.594Z,99836.28
2022-11-16T18:08:42.559Z,99830.38
2022-11-16T18:11:16.595Z,99835.47
2022-11-16T18:13:43.990Z,99839.81
2022-11-16T18:16:16.550Z,99844.19
2022-11-16T18:18:44.957Z,99845.44
2022-11-16T18:21:18.783Z,99838.69
2022-11-16T18:23:47.557Z,99839.88
2022-11-16T18:26:20.519Z,99849.66
2022-11-16T18:28:51.822Z,99853.53
2022-11-16T18:31:23.186Z,99848.00
2022-11-16T18:33:50.783Z,99842.50
2022-11-16T18:36:19.446Z,99847.91
2022-11-16T18:38:46.908Z,99846.63
2022-11-16T18:41:13.614Z,99844.63
2022-11-16T18:43:42.673Z,99853.97
2022-11-16T18:46:09.516Z,99860.72
2022-11-16T18:48:36.629Z,99855.88
2022-11-16T18:51:04.735Z,99843.84
2022-11-16T18:53:32.894Z,99850.19
2022-11-16T18:56:00.033Z,99844.38
2022-11-16T19:01:17.557Z,99845.44
2022-11-16T19:03:44.951Z,99839.09
2022-11-16T19:06:12.225Z,99834.31
2022-11-16T19:08:41.297Z,99829.56
2022-11-16T19:11:11.817Z,99811.88
2022-11-16T19:13:40.184Z,99811.09
2022-11-16T19:16:08.229Z,99804.00
2022-11-16T19:18:36.825Z,99802.13
2022-11-16T19:21:07.436Z,99803.00
2022-11-16T19:23:45.041Z,99804.19
2022-11-16T19:26:13.783Z,99805.81
2022-11-16T19:28:42.850Z,99806.28
2022-11-16T19:31:21.950Z,99801.19
2022-11-16T19:33:54.062Z,99803.22
2022-11-16T19:36:21.534Z,99782.38
2022-11-16T19:38:49.140Z,99798.97
2022-11-16T19:41:17.250Z,99792.06
2022-11-16T19:43:44.145Z,99790.16
2022-11-16T19:46:13.588Z,99787.91
2022-11-16T19:48:41.314Z,99782.13
2022-11-16T19:51:14.878Z,99779.66
2022-11-16T19:53:42.152Z,99776.91
2022-11-16T19:56:11.383Z,99789.03
2022-11-16T19:58:38.956Z,99779.66
2022-11-16T20:01:09.826Z,99766.38
2022-11-16T20:03:40.767Z,99760.44
2022-11-16T20:06:09.431Z,99762.44
2022-11-16T20:08:37.966Z,99752.19
2022-11-16T20:11:14.312Z,99749.00
2022-11-16T20:13:42.568Z,99741.47
2022-11-16T20:16:11.720Z,99749.63
2022-11-16T20:18:40.308Z,99750.31
2022-11-16T20:21:08.580Z,99747.91
2022-11-16T20:23:36.010Z,99740.81
2022-11-16T20:26:10.654Z,99736.78
2022-11-16T20:28:39.067Z,99736.31
2022-11-16T20:31:12.470Z,99739.41
2022-11-16T20:33:39.895Z,99729.97
2022-11-16T20:36:09.896Z,99726.00
2022-11-16T20:38:38.401Z,99731.13
2022-11-16T20:41:18.180Z,99731.91
2022-11-16T20:43:46.292Z,99717.41
2022-11-16T20:46:14.794Z,99716.25
2022-11-16T20:48:42.795Z,99693.09
2022-11-16T20:51:17.002Z,99694.19
2022-11-16T20:53:45.083Z,99696.03
2022-11-16T20:56:12.743Z,99694.44
2022-11-16T20:58:40.077Z,99700.19
2022-11-16T21:01:18.789Z,99687.66
2022-11-16T21:03:46.159Z,99686.41
2022-11-16T21:06:14.303Z,99685.19
2022-11-16T21:08:41.807Z,99675.34
2022-11-16T21:11:29.381Z,99679.72
2022-11-16T21:14:15.041Z,99678.91
2022-11-16T21:16:42.262Z,99668.69
2022-11-16T21:19:09.697Z,99667.13
2022-11-16T21:21:38.042Z,99666.72
2022-11-16T21:24:05.495Z,99668.31
2022-11-16T21:26:33.568Z,99665.59
2022-11-16T21:29:01.876Z,99666.00
2022-11-16T21:31:31.431Z,99658.50
2022-11-16T21:34:00.763Z,99659.31
2022-11-16T21:36:30.034Z,99657.72
2022-11-16T21:38:58.281Z,99649.19
2022-11-16T21:41:26.230Z,99655.50
2022-11-16T21:43:53.278Z,99660.31
2022-11-16T21:46:23.528Z,99638.41
2022-11-16T21:48:51.327Z,99630.97
2022-11-16T21:51:19.577Z,99631.03
2022-11-16T21:53:46.848Z,99628.31
2022-11-16T21:56:16.420Z,99621.31
2022-11-16T21:58:43.947Z,99614.66
2022-11-16T22:01:12.250Z,99619.34
2022-11-16T22:03:39.416Z,99618.94
2022-11-16T22:06:27.350Z,99618.25
2022-11-16T22:08:54.236Z,99613.59
2022-11-16T22:11:22.259Z,99605.38
2022-11-16T22:13:50.238Z,99602.25
2022-11-16T22:16:18.990Z,99599.50
2022-11-16T22:18:45.920Z,99601.09
2022-11-16T22:21:13.056Z,99593.25
2022-11-16T22:23:40.438Z,99578.00
2022-11-16T22:26:10.435Z,99572.09
2022-11-16T22:28:38.114Z,99561.91
2022-11-16T22:31:07.972Z,99562.28
2022-11-16T22:33:35.414Z,99563.06
2022-11-16T22:36:02.991Z,99555.22
2022-11-16T22:38:30.267Z,99557.16
2022-11-16T22:40:58.058Z,99545.41
2022-11-16T22:43:27.543Z,99539.91
2022-11-16T22:46:01.935Z,99526.97
2022-11-16T22:48:36.694Z,99521.09
2022-11-16T22:51:06.960Z,99514.06
2022-11-16T22:53:34.846Z,99521.91
2022-11-16T22:56:09.996Z,99515.59
2022-11-16T22:58:38.301Z,99510.91
2022-11-16T23:01:07.456Z,99503.88
2022-11-16T23:03:35.047Z,99496.03
2022-11-16T23:06:02.404Z,99480.72
2022-11-16T23:08:29.342Z,99485.41
2022-11-16T23:11:21.166Z,99486.59
2022-11-16T23:14:07.610Z,99469.34
2022-11-16T23:16:35.016Z,99467.38
2022-11-16T23:19:02.491Z,99455.97
2022-11-16T23:21:47.985Z,99452.03
2022-11-16T23:24:33.906Z,99448.94
2022-11-16T23:27:22.603Z,99428.09
2022-11-16T23:29:49.869Z,99414.41
2022-11-16T23:32:16.636Z,99406.53
2022-11-16T23:34:43.579Z,99404.97
2022-11-16T23:37:10.523Z,99406.53
2022-11-16T23:39:37.469Z,99403.03
2022-11-16T23:42:23.120Z,99386.56
2022-11-16T23:44:50.139Z,99394.34
2022-11-16T23:47:17.015Z,99376.75
2022-11-16T23:49:43.953Z,99383.03
2022-11-16T23:52:11.349Z,99370.47
2022-11-16T23:54:38.335Z,99373.19
2022-11-16T23:57:05.967Z,99356.72
2022-11-16T23:59:32.848Z,99356.34
